Aeroporto :
LOGIN :

Iscrizione | Disclaimer

   EN    FR    IT 

 










Sommario :    VFR   VFR Marginale   IFR   IFR Intensivo   IFR Molto Intensivo
Visibilità : 
Base nubi : 
>= 8 km
>= 3000ft
5 / 8 km
1000 / 3000 ft
1500m / 5 km
500 / 1000 ft
800 / 1500m
200 / 500 ft
< 800m
< 200 ft
Simboli :   Temporali  Nebbia  Neve Forte  Precipitazioni Forti  Vento > 20 kt
SIGMETs :   Varie  Temporali  Ghiacco  Turbolenza  Onda orograficha  Ceneri Vulcaniche






- Altitudine del aeroporto : 681 ft
- Codice IATA : LBA


EGNM - Leeds Bradford

ULTIMO METAR :
  • 180320Z 24017KT 9999 BKN022 04/01 Q1010

METARs OBSOLETI :
  • 180250Z 24018G30KT 9999 BKN022 04/01 Q1010
  • 180220Z 25016KT 9999 -SHRA BKN022 04/01 Q1011
  • 180150Z 24017G28KT 9999 SCT015 04/01 Q1010
  • 180120Z 25021G33KT 9999 SCT015 04/01 Q1010
  • 180050Z 25026G42KT 9999 SCT020 04/01 Q1009

TAF AMD TAF EGNM
Valido dal 18 a 00 ore il 19 a 00 ore UTC


180056Z 1800/1824 26020G30KT 9999 SCT020
TEMPO 1800/1806 26025G40KT
TEMPO 1800/1824 7000 SHRA BKN014
PROB30
TEMPO 1800/1804 4000 -SHRASN BKN005
PROB30
TEMPO 1813/1821 26025G40KT 3000 +SHRAGS BKN008 BKN020CB
PROB30
TEMPO 1821/1824 4000 -SHRASN BKN005
ATIS : +44 113 250 9696 (x2489)



MetMap, La meteo Aeronautica in un colpo d'occhio ! - Copyright ORBIFLY Dicembre 2007 - Disclaimer

ORBIFLY MET'MAP TEAM :

Programmazione e sviluppo : Alexandra Zaïnal
Concezione : Baudouin d'Aumeries
Aiuto per la programmazione : Marc-Olivier Méhu
Supporto tecnico e logistico : Manuel Goepfert
Aiuto per la traduzione : Arnaldo La Scala

Contatto : metmap@orbifly.com




FONTI E CREDITI :

   NOAA